Map

Track Data

SID SEASON NUMBER BASIN SUBBASIN NAME ISO_TIME NATURE LAT LON WMO_WIND WMO_PRES WMO_AGENCY TRACK_TYPE DIST2LAND LANDFALL IFLAG USA_AGENCY USA_ATCF_ID USA_LAT USA_LON USA_RECORD USA_STATUS USA_WIND USA_PRES USA_SSHS USA_R34_NE USA_R34_SE USA_R34_SW USA_R34_NW USA_R50_NE USA_R50_SE USA_R50_SW USA_R50_NW USA_R64_NE USA_R64_SE USA_R64_SW USA_R64_NW USA_POCI USA_ROCI USA_RMW USA_EYE TOKYO_LAT TOKYO_LON TOKYO_GRADE TOKYO_WIND TOKYO_PRES TOKYO_R50_DIR TOKYO_R50_LONG TOKYO_R50_SHORT TOKYO_R30_DIR TOKYO_R30_LONG TOKYO_R30_SHORT TOKYO_LAND CMA_LAT CMA_LON CMA_CAT CMA_WIND CMA_PRES HKO_LAT HKO_LON HKO_CAT HKO_WIND HKO_PRES NEWDELHI_LAT NEWDELHI_LON NEWDELHI_GRADE NEWDELHI_WIND NEWDELHI_PRES NEWDELHI_CI NEWDELHI_DP NEWDELHI_POCI REUNION_LAT REUNION_LON REUNION_TYPE REUNION_WIND REUNION_PRES REUNION_TNUM REUNION_CI REUNION_RMW REUNION_R34_NE REUNION_R34_SE REUNION_R34_SW REUNION_R34_NW REUNION_R50_NE REUNION_R50_SE REUNION_R50_SW REUNION_R50_NW REUNION_R64_NE REUNION_R64_SE REUNION_R64_SW REUNION_R64_NW BOM_LAT BOM_LON BOM_TYPE BOM_WIND BOM_PRES BOM_TNUM BOM_CI BOM_RMW BOM_R34_NE BOM_R34_SE BOM_R34_SW BOM_R34_NW BOM_R50_NE BOM_R50_SE BOM_R50_SW BOM_R50_NW BOM_R64_NE BOM_R64_SE BOM_R64_SW BOM_R64_NW BOM_ROCI BOM_POCI BOM_EYE BOM_POS_METHOD BOM_PRES_METHOD NADI_LAT NADI_LON NADI_CAT NADI_WIND NADI_PRES WELLINGTON_LAT WELLINGTON_LON WELLINGTON_WIND WELLINGTON_PRES DS824_LAT DS824_LON DS824_STAGE DS824_WIND DS824_PRES TD9636_LAT TD9636_LON TD9636_STAGE TD9636_WIND TD9636_PRES TD9635_LAT TD9635_LON TD9635_WIND TD9635_PRES TD9635_ROCI NEUMANN_LAT NEUMANN_LON NEUMANN_CLASS NEUMANN_WIND NEUMANN_PRES MLC_LAT MLC_LON MLC_CLASS MLC_WIND MLC_PRES USA_GUST BOM_GUST BOM_GUST_PER REUNION_GUST REUNION_GUST_PER USA_SEAHGT USA_SEARAD_NE USA_SEARAD_SE USA_SEARAD_SW USA_SEARAD_NW STORM_SPEED STORM_DIR
1925345S14066 1926 63 SI MM NOT_NAMED 1925-12-10 18:00:00 NR -13.6000 66.1000 main 1152 1136 __________O___ -1 -13.6000 66.1000 7 3 247
1925345S14066 1926 63 SI MM NOT_NAMED 1925-12-10 21:00:00 NR -13.6621 65.9496 main 1128 1120 __________P___ -1 -13.6621 65.9496 7 4 246
1925345S14066 1926 63 SI MM NOT_NAMED 1925-12-11 00:00:00 NR -13.7394 65.7694 main 1120 1088 __________P___ -1 -13.7394 65.7694 7 4 246
1925345S14066 1926 63 SI MM NOT_NAMED 1925-12-11 03:00:00 NR -13.8471 65.5296 main 1088 1049 __________P___ -1 -13.8471 65.5296 7 6 245
1925345S14066 1926 63 SI MM NOT_NAMED 1925-12-11 06:00:00 NR -14.0000 65.2000 main 1049 1002 __________O___ -1 -14.0000 65.2000 7 8 244
1925345S14066 1926 63 SI MM NOT_NAMED 1925-12-11 09:00:00 NR -14.2074 64.7633 main 1002 947 __________P___ -1 -14.2074 64.7633 7 10 244
1925345S14066 1926 63 SI MM NOT_NAMED 1925-12-11 12:00:00 NR -14.4558 64.2531 main 939 877 __________P___ -1 -14.4558 64.2531 7 11 243
1925345S14066 1926 63 SI MM NOT_NAMED 1925-12-11 15:00:00 NR -14.7262 63.7163 main 877 815 __________P___ -1 -14.7262 63.7163 7 12 242
1925345S14066 1926 63 SI MM NOT_NAMED 1925-12-11 18:00:00 NR -15.0000 63.2000 main 815 769 __________O___ -1 -15.0000 63.2000 7 11 241
1925345S14066 1926 63 SI MM NOT_NAMED 1925-12-11 21:00:00 NR -15.2416 62.7546 main 769 715 __________P___ -1 -15.2416 62.7546 7 10 240
1925345S14066 1926 63 SI MM NOT_NAMED 1925-12-12 00:00:00 NR -15.4847 62.3395 main 708 670 __________P___ -1 -15.4847 62.3395 7 9 237
1925345S14066 1926 63 SI MM NOT_NAMED 1925-12-12 03:00:00 NR -15.7354 61.9547 main 670 616 __________P___ -1 -15.7354 61.9547 7 9 234
1925345S14066 1926 63 SI MM NOT_NAMED 1925-12-12 06:00:00 NR -16.0000 61.6000 main 616 570 __________O___ -1 -16.0000 61.6000 7 9 231
1925345S14066 1926 63 SI MM NOT_NAMED 1925-12-12 09:00:00 NR -16.2814 61.2508 main 570 517 __________P___ -1 -16.2814 61.2508 7 9 228
1925345S14066 1926 63 SI MM NOT_NAMED 1925-12-12 12:00:00 NR -16.5773 60.9324 main 517 477 __________P___ -1 -16.5773 60.9324 7 8 224
1925345S14066 1926 63 SI MM NOT_NAMED 1925-12-12 15:00:00 NR -16.8846 60.6477 main 470 431 __________P___ -1 -16.8846 60.6477 7 8 219
1925345S14066 1926 63 SI MM NOT_NAMED 1925-12-12 18:00:00 NR -17.2000 60.4000 main 431 392 __________O___ -1 -17.2000 60.4000 7 8 217
1925345S14066 1926 63 SI MM NOT_NAMED 1925-12-12 21:00:00 NR -17.5014 60.1565 main 392 353 __________P___ -1 -17.5014 60.1565 7 8 215
1925345S14066 1926 63 SI MM NOT_NAMED 1925-12-13 00:00:00 NR -17.8124 59.9526 main 353 314 __________P___ -1 -17.8124 59.9526 7 7 208
1925345S14066 1926 63 SI MM NOT_NAMED 1925-12-13 03:00:00 NR -18.1421 59.7973 main 314 275 __________P___ -1 -18.1421 59.7973 7 7 199
1925345S14066 1926 63 SI MM NOT_NAMED 1925-12-13 06:00:00 NR -18.5000 59.7000 main 275 240 __________O___ -1 -18.5000 59.7000 7 8 191
1925345S14066 1926 63 SI MM NOT_NAMED 1925-12-13 09:00:00 NR -18.9123 59.6350 main 240 218 __________P___ -1 -18.9123 59.6350 7 9 184
1925345S14066 1926 63 SI MM NOT_NAMED 1925-12-13 12:00:00 NR -19.3497 59.6301 main 218 203 __________P___ -1 -19.3497 59.6301 7 9 178
1925345S14066 1926 63 SI MM NOT_NAMED 1925-12-13 15:00:00 NR -19.7873 59.6852 main 206 201 __________P___ -1 -19.7873 59.6852 7 9 169
1925345S14066 1926 63 SI MM NOT_NAMED 1925-12-13 18:00:00 NR -20.2000 59.8000 main 208 208 __________O___ -1 -20.2000 59.8000 7 8 162
1925345S14066 1926 63 SI MM NOT_NAMED 1925-12-13 21:00:00 NR -20.5741 59.9630 main 231 231 __________P___ -1 -20.5741 59.9630 7 8 153
1925345S14066 1926 63 SI MM NOT_NAMED 1925-12-14 00:00:00 NR -20.9176 60.1819 main 258 258 __________P___ -1 -20.9176 60.1819 7 8 146
1925345S14066 1926 63 SI MM NOT_NAMED 1925-12-14 03:00:00 NR -21.2272 60.4350 main 288 288 __________P___ -1 -21.2272 60.4350 7 8 140
1925345S14066 1926 63 SI MM NOT_NAMED 1925-12-14 06:00:00 NR -21.5000 60.7000 main 329 329 __________O___ -1 -21.5000 60.7000 7 7 137
1925345S14066 1926 63 SI MM NOT_NAMED 1925-12-14 09:00:00 NR -21.7400 60.9472 main 357 357 __________P___ -1 -21.7400 60.9472 7 6 134
1925345S14066 1926 63 SI MM NOT_NAMED 1925-12-14 12:00:00 NR -21.9450 61.2004 main 395 395 __________P___ -1 -21.9450 61.2004 7 6 130
1925345S14066 1926 63 SI MM NOT_NAMED 1925-12-14 15:00:00 NR -22.1275 61.4534 main 432 432 __________P___ -1 -22.1275 61.4534 7 6 127
1925345S14066 1926 63 SI MM NOT_NAMED 1925-12-14 18:00:00 NR -22.3000 61.7000 main 460 460 __________O___ -1 -22.3000 61.7000 7 6 130
1925345S14066 1926 63 SI MM NOT_NAMED 1925-12-14 21:00:00 NR -22.4819 61.9164 main 488 488 __________P___ -1 -22.4819 61.9164 7 5 132
1925345S14066 1926 63 SI MM NOT_NAMED 1925-12-15 00:00:00 NR -22.6570 62.1281 main 516 516 __________P___ -1 -22.6570 62.1281 7 5 131
1925345S14066 1926 63 SI MM NOT_NAMED 1925-12-15 03:00:00 NR -22.8287 62.3508 main 549 549 __________P___ -1 -22.8287 62.3508 7 6 128
1925345S14066 1926 63 SI MM NOT_NAMED 1925-12-15 06:00:00 NR -23.0000 62.6000 main 577 577 __________O___ -1 -23.0000 62.6000 7 6 125
1925345S14066 1926 63 SI MM NOT_NAMED 1925-12-15 09:00:00 NR -23.1792 62.9003 main 615 615 __________P___ -1 -23.1792 62.9003 7 7 122
1925345S14066 1926 63 SI MM NOT_NAMED 1925-12-15 12:00:00 NR -23.3577 63.2274 main 653 653 __________P___ -1 -23.3577 63.2274 7 7 120
1925345S14066 1926 63 SI MM NOT_NAMED 1925-12-15 15:00:00 NR -23.5323 63.5659 main 694 694 __________P___ -1 -23.5323 63.5659 7 7 119
1925345S14066 1926 63 SI MM NOT_NAMED 1925-12-15 18:00:00 NR -23.7000 63.9000 main 731 731 __________O___ -1 -23.7000 63.9000 7 7 119
1925345S14066 1926 63 SI MM NOT_NAMED 1925-12-15 21:00:00 NR -23.8588 64.2174 main 769 769 __________P___ -1 -23.8588 64.2174 7 6 119
1925345S14066 1926 63 SI MM NOT_NAMED 1925-12-16 00:00:00 NR -24.0102 64.5197 main 801 801 __________P___ -1 -24.0102 64.5197 7 6 119
1925345S14066 1926 63 SI MM NOT_NAMED 1925-12-16 03:00:00 NR -24.1565 64.8122 main 838 838 __________P___ -1 -24.1565 64.8122 7 6 119
1925345S14066 1926 63 SI MM NOT_NAMED 1925-12-16 06:00:00 NR -24.3000 65.1000 main 870 __________O___ -1 -24.3000 65.1000 7 6 119

About IBTrACS Database

This database is a web-friendly format of International Best Track Archive for Climate Stewardship (IBTrACS), a global best track data archive curated by NOAA dating back to 1842.

Updated: 2021-12-01